Time;durP1;ratioP1;P1;durP2;ratioP2;P2;SDS_P1;SDS_P2;PMS_P1;PMS_P2;Temp;Humidity;BMP_temperature;BMP_pressure;BME280_temperature;BME280_humidity;BME280_pressure;Samples;Min_cycle;Max_cycle;Signal;HPM_P1;HPM_P2
2022/09/02 00:01:47;;;;;;;2.45;1.15;;;;;;;14.45;71.25;101994.47;5068511;28;20032;-72
2022/09/02 00:04:16;;;;;;;10.65;1.17;;;;;;;14.47;71.76;101997.91;5068538;28;20048;-71
2022/09/02 00:06:43;;;;;;;6.78;0.90;;;;;;;14.40;71.42;102003.97;5068302;28;20032;-72
2022/09/02 00:09:11;;;;;;;6.10;1.50;;;;;;;14.44;71.58;101998.22;5068221;28;20032;-72
2022/09/02 00:11:37;;;;;;;7.63;1.38;;;;;;;14.33;72.07;101997.41;5067865;28;20031;-71
2022/09/02 00:14:09;;;;;;;3.83;1.05;;;;;;;14.32;72.06;102009.34;5067767;28;20173;-71
2022/09/02 00:16:35;;;;;;;2.05;1.00;;;;;;;14.41;71.87;101988.50;5067301;28;20104;-71
2022/09/02 00:19:03;;;;;;;3.65;1.10;;;;;;;14.38;72.03;102000.53;5050349;28;20029;-71
2022/09/02 00:21:33;;;;;;;4.10;1.00;;;;;;;14.45;71.68;101989.00;5068982;28;20024;-72
2022/09/02 00:23:58;;;;;;;2.13;0.98;;;;;;;14.36;71.98;101986.22;5051360;28;20020;-72
2022/09/02 00:26:24;;;;;;;0.75;0.75;;;;;;;14.37;72.25;101978.91;5050958;28;20039;-71
2022/09/02 00:28:50;;;;;;;1.10;0.80;;;;;;;14.31;72.09;101994.00;5050755;28;20020;-73
2022/09/02 00:31:16;;;;;;;8.13;1.13;;;;;;;14.27;72.09;101997.19;5050935;28;20020;-72
2022/09/02 00:33:42;;;;;;;5.28;1.00;;;;;;;14.32;72.51;102000.31;5051194;28;20101;-72
2022/09/02 00:36:08;;;;;;;1.38;0.90;;;;;;;14.31;71.61;101988.56;5050186;28;20121;-71
2022/09/02 00:38:34;;;;;;;1.55;1.00;;;;;;;14.38;72.04;101994.25;5050841;28;20016;-71
2022/09/02 00:41:04;;;;;;;2.47;1.00;;;;;;;14.13;72.60;101995.84;5050397;28;20115;-71
2022/09/02 00:43:50;;;;;;;1.17;0.95;;;;;;;14.15;72.25;101999.31;5056469;28;20033;-72
2022/09/02 00:46:18;;;;;;;0.82;0.70;;;;;;;14.25;72.03;101988.31;5047255;28;20032;-73
2022/09/02 00:48:52;;;;;;;6.65;1.40;;;;;;;14.21;72.34;101993.22;5050464;28;20043;-72
2022/09/02 00:51:18;;;;;;;3.25;0.75;;;;;;;14.02;72.94;101993.38;5049916;28;20020;-72
2022/09/02 00:53:47;;;;;;;2.05;1.00;;;;;;;14.24;72.09;101998.38;5051113;28;20074;-71
2022/09/02 00:56:19;;;;;;;3.72;1.33;;;;;;;14.06;73.27;102000.19;5050260;28;20021;-71
2022/09/02 00:58:46;;;;;;;8.15;1.00;;;;;;;14.09;72.52;102005.34;5050747;28;20060;-71
2022/09/02 01:01:11;;;;;;;2.55;1.38;;;;;;;14.10;71.92;101997.03;5050593;28;20042;-71
2022/09/02 01:03:39;;;;;;;2.15;1.10;;;;;;;14.06;72.47;102003.78;5050601;28;20111;-71
2022/09/02 01:06:05;;;;;;;1.90;1.02;;;;;;;14.04;73.02;101996.78;5049684;28;20032;-71
2022/09/02 01:08:35;;;;;;;1.85;0.98;;;;;;;14.10;72.48;101990.72;5050001;28;20024;-71
2022/09/02 01:11:03;;;;;;;1.23;1.00;;;;;;;13.97;72.89;101991.09;5049751;28;20073;-72
2022/09/02 01:13:31;;;;;;;2.70;1.15;;;;;;;13.89;73.36;101987.41;5050060;28;20024;-71
2022/09/02 01:16:23;;;;;;;7.13;1.10;;;;;;;13.81;73.92;101991.75;5050468;28;20035;-71
2022/09/02 01:18:51;;;;;;;3.15;1.15;;;;;;;13.75;73.70;101989.63;5046512;28;20029;-71
2022/09/02 01:21:17;;;;;;;2.13;1.10;;;;;;;13.79;74.00;101988.34;5029909;28;20029;-72
2022/09/02 01:23:43;;;;;;;3.58;1.30;;;;;;;13.74;73.47;101987.94;5029898;28;20072;-72
2022/09/02 01:26:09;;;;;;;2.45;0.93;;;;;;;13.68;74.14;101980.38;5029724;28;20029;-71
2022/09/02 01:28:36;;;;;;;3.92;0.95;;;;;;;13.44;75.16;101988.25;5029349;28;20078;-71
2022/09/02 01:31:01;;;;;;;2.67;1.30;;;;;;;13.53;74.77;101977.28;5046963;28;20017;-71
2022/09/02 01:33:27;;;;;;;1.73;1.20;;;;;;;13.54;74.96;101972.72;5047624;28;20043;-71
2022/09/02 01:35:53;;;;;;;1.98;1.00;;;;;;;13.61;74.37;101975.69;5043956;28;20024;-71
2022/09/02 01:38:19;;;;;;;2.50;0.93;;;;;;;13.64;74.70;101980.84;5049589;28;20024;-71
2022/09/02 01:40:44;;;;;;;2.85;1.30;;;;;;;13.49;75.08;101985.91;5049899;28;20115;-71
2022/09/02 01:43:16;;;;;;;1.73;1.00;;;;;;;13.59;74.61;101984.00;5049311;28;20110;-72
2022/09/02 01:45:44;;;;;;;2.28;1.00;;;;;;;13.57;74.64;101980.59;5049361;28;20275;-72
2022/09/02 01:48:11;;;;;;;1.35;1.00;;;;;;;13.44;75.20;101983.66;5049685;28;20101;-71
2022/09/02 01:50:38;;;;;;;1.88;1.15;;;;;;;13.50;74.72;101982.19;5049743;28;20029;-71
2022/09/02 01:53:04;;;;;;;7.15;0.98;;;;;;;13.47;75.01;101977.03;5067960;28;20127;-72
2022/09/02 01:55:31;;;;;;;4.03;0.90;;;;;;;13.54;74.71;101972.72;5049235;28;20496;-70
2022/09/02 01:57:57;;;;;;;3.60;1.52;;;;;;;13.39;75.41;101966.91;5049188;28;20020;-71
2022/09/02 02:00:22;;;;;;;3.97;1.13;;;;;;;13.48;74.96;101967.88;5048703;28;20099;-73
2022/09/02 02:02:48;;;;;;;1.92;1.00;;;;;;;13.42;75.54;101968.47;5067060;28;20027;-72
2022/09/02 02:05:14;;;;;;;2.28;1.00;;;;;;;13.41;75.61;101974.91;5049517;28;20016;-72
2022/09/02 02:07:41;;;;;;;4.65;1.50;;;;;;;13.53;74.71;101960.13;5051086;28;20034;-71
2022/09/02 02:10:09;;;;;;;3.08;1.00;;;;;;;13.46;75.48;101959.00;5069093;28;20469;-71
2022/09/02 02:12:35;;;;;;;2.50;1.15;;;;;;;13.46;74.97;101953.56;5051235;28;20115;-73
2022/09/02 02:15:03;;;;;;;2.35;1.23;;;;;;;13.55;74.81;101963.53;5069812;28;20027;-72
2022/09/02 02:17:28;;;;;;;4.53;1.10;;;;;;;13.43;74.65;101970.16;5054335;28;20027;-72
2022/09/02 02:19:54;;;;;;;2.78;1.15;;;;;;;13.32;75.96;101951.34;5050561;28;20024;-72
2022/09/02 02:22:19;;;;;;;2.45;1.23;;;;;;;13.41;75.28;101961.31;5056766;28;20039;-72
2022/09/02 02:24:45;;;;;;;5.00;1.23;;;;;;;13.34;75.78;101960.19;5051292;28;20017;-71
2022/09/02 02:27:10;;;;;;;5.55;1.00;;;;;;;13.39;74.72;101964.19;5051042;28;20025;-72
2022/09/02 02:29:35;;;;;;;1.58;1.20;;;;;;;13.33;75.59;101953.06;5050703;28;20382;-74
2022/09/02 02:32:01;;;;;;;3.08;1.10;;;;;;;13.35;75.80;101951.03;5051420;28;20111;-72
2022/09/02 02:34:27;;;;;;;1.92;1.00;;;;;;;13.19;76.32;101947.06;5050918;28;20067;-73
2022/09/02 02:36:52;;;;;;;3.47;1.30;;;;;;;13.19;75.93;101957.94;5051046;28;20021;-73
2022/09/02 02:39:18;;;;;;;1.30;1.20;;;;;;;13.24;75.76;101961.13;5052824;28;20032;-71
2022/09/02 02:41:43;;;;;;;2.63;1.05;;;;;;;13.22;76.27;101957.66;5054783;28;20097;-72
2022/09/02 02:44:09;;;;;;;3.05;1.02;;;;;;;13.23;76.24;101953.06;5037082;28;20398;-72
2022/09/02 02:46:35;;;;;;;1.38;0.90;;;;;;;13.17;76.49;101953.63;5035471;28;20124;-72
2022/09/02 02:49:02;;;;;;;1.17;1.00;;;;;;;13.29;75.76;101947.91;5054337;28;20059;-72
2022/09/02 02:51:27;;;;;;;2.75;1.30;;;;;;;13.17;76.05;101951.81;5054548;28;20429;-73
2022/09/02 02:53:52;;;;;;;1.90;1.20;;;;;;;13.22;76.07;101948.66;5054518;28;20111;-72
2022/09/02 02:56:18;;;;;;;2.22;1.10;;;;;;;13.15;76.05;101945.63;5053761;28;20028;-73
2022/09/02 02:58:43;;;;;;;2.53;0.98;;;;;;;13.12;76.26;101945.94;5054911;28;20029;-71
2022/09/02 03:01:09;;;;;;;2.28;1.13;;;;;;;13.02;77.07;101945.09;5054753;28;20139;-71
2022/09/02 03:03:35;;;;;;;1.45;0.88;;;;;;;12.99;77.13;101945.41;5054788;28;20063;-73
2022/09/02 03:06:00;;;;;;;1.23;1.00;;;;;;;13.01;77.42;101948.84;5055024;28;20064;-73
2022/09/02 03:08:26;;;;;;;1.65;1.10;;;;;;;12.89;77.86;101945.44;5054838;28;20476;-72
2022/09/02 03:10:54;;;;;;;5.78;1.70;;;;;;;12.94;77.27;101943.13;5072748;28;20119;-73
2022/09/02 03:13:24;;;;;;;4.82;1.75;;;;;;;12.98;77.22;101943.72;5054514;28;20028;-73
2022/09/02 03:15:51;;;;;;;2.28;1.02;;;;;;;12.91;76.94;101948.88;5072465;28;20051;-73
2022/09/02 03:18:16;;;;;;;1.48;1.30;;;;;;;12.88;77.32;101938.28;5063164;28;20074;-72
2022/09/02 03:20:42;;;;;;;2.15;1.45;;;;;;;12.90;77.41;101940.84;5074000;28;20469;-71
2022/09/02 03:23:08;;;;;;;3.08;1.38;;;;;;;12.97;77.29;101931.09;5074882;28;20031;-72
2022/09/02 03:25:34;;;;;;;4.53;1.45;;;;;;;12.85;77.48;101935.88;5074087;28;20067;-72
2022/09/02 03:28:01;;;;;;;4.30;1.30;;;;;;;12.81;77.54;101930.88;5055207;28;20419;-72
2022/09/02 03:30:29;;;;;;;3.78;1.30;;;;;;;12.58;79.17;101933.03;5061317;28;20044;-73
2022/09/02 03:32:57;;;;;;;5.40;1.45;;;;;;;12.69;78.81;101933.75;5074396;28;20050;-72
2022/09/02 03:35:23;;;;;;;1.67;1.10;;;;;;;12.79;78.65;101932.88;5071994;28;20024;-72
2022/09/02 03:37:50;;;;;;;7.93;1.60;;;;;;;12.83;78.27;101934.28;5054228;28;20020;-71
2022/09/02 03:40:19;;;;;;;6.13;1.45;;;;;;;12.86;77.98;101929.44;5091564;28;20093;-72
2022/09/02 03:42:45;;;;;;;2.58;1.30;;;;;;;12.68;79.07;101926.59;5067542;28;20040;-72
2022/09/02 03:45:14;;;;;;;1.92;1.30;;;;;;;12.80;78.47;101926.44;5054113;28;20071;-73
2022/09/02 03:47:44;;;;;;;3.05;1.40;;;;;;;12.80;78.57;101918.28;5044452;28;20033;-72
2022/09/02 03:50:09;;;;;;;3.13;1.83;;;;;;;12.83;78.82;101924.28;5032719;28;20111;-72
2022/09/02 03:52:35;;;;;;;3.42;1.30;;;;;;;12.86;77.79;101923.13;5034061;28;20132;-72
2022/09/02 03:55:02;;;;;;;3.30;1.42;;;;;;;12.68;79.04;101921.16;5033857;28;20059;-73
2022/09/02 03:57:27;;;;;;;6.25;1.58;;;;;;;12.71;78.81;101914.56;5051495;28;20454;-74
2022/09/02 03:59:53;;;;;;;9.85;1.60;;;;;;;12.85;78.33;101926.88;5051354;28;20072;-73
2022/09/02 04:02:19;;;;;;;2.30;1.60;;;;;;;12.80;78.50;101923.72;5033265;28;20124;-72
2022/09/02 04:04:44;;;;;;;3.42;1.42;;;;;;;12.74;78.88;101915.16;5033307;28;20036;-72
2022/09/02 04:07:09;;;;;;;7.95;1.60;;;;;;;12.80;78.61;101921.00;5051374;28;20036;-73
2022/09/02 04:09:35;;;;;;;4.05;1.58;;;;;;;12.71;78.81;101920.00;5033162;28;20021;-72
2022/09/02 04:12:02;;;;;;;3.83;1.70;;;;;;;12.72;79.48;101919.88;5033258;28;20489;-72
2022/09/02 04:14:28;;;;;;;2.35;1.52;;;;;;;12.55;79.85;101915.19;5032937;28;20024;-72
2022/09/02 04:16:53;;;;;;;10.02;2.08;;;;;;;12.69;79.50;101912.00;5034650;28;20036;-74
2022/09/02 04:19:18;;;;;;;3.38;1.77;;;;;;;12.66;80.07;101915.03;5052743;28;20031;-73
2022/09/02 04:21:44;;;;;;;6.63;1.35;;;;;;;12.61;79.80;101911.03;5052719;28;20024;-71
2022/09/02 04:24:11;;;;;;;4.75;2.15;;;;;;;12.51;80.51;101908.31;5071160;28;20028;-71
2022/09/02 04:26:37;;;;;;;2.72;1.50;;;;;;;12.49;80.63;101911.19;5052876;28;20064;-72
2022/09/02 04:29:03;;;;;;;5.15;1.77;;;;;;;12.50;80.49;101912.03;5053176;28;20051;-72
2022/09/02 04:31:31;;;;;;;3.35;1.30;;;;;;;12.65;80.01;101910.59;5052879;28;20028;-72
2022/09/02 04:33:57;;;;;;;3.33;1.77;;;;;;;12.68;79.69;101915.72;5053215;28;20028;-72
2022/09/02 04:36:23;;;;;;;4.03;1.65;;;;;;;12.68;79.91;101921.16;5052146;28;20081;-72
2022/09/02 04:38:49;;;;;;;3.28;1.85;;;;;;;12.70;79.26;101913.72;5052992;28;20020;-72
2022/09/02 04:41:17;;;;;;;3.58;2.20;;;;;;;12.60;79.80;101912.03;5052455;28;20024;-72
2022/09/02 04:43:44;;;;;;;4.05;1.85;;;;;;;12.66;79.88;101917.75;5039215;28;20029;-73
2022/09/02 04:46:12;;;;;;;5.40;1.58;;;;;;;12.76;79.07;101924.00;5056195;28;20025;-71
2022/09/02 04:48:38;;;;;;;5.28;1.58;;;;;;;12.67;80.19;101919.47;5062534;28;20109;-73
2022/09/02 04:51:10;;;;;;;4.03;1.90;;;;;;;12.60;79.86;101918.34;5038773;28;20074;-73
2022/09/02 04:53:36;;;;;;;4.07;2.00;;;;;;;12.76;79.13;101915.84;5043248;28;20055;-73
2022/09/02 04:56:09;;;;;;;4.55;1.95;;;;;;;12.72;79.62;101922.59;5055258;28;20027;-71
2022/09/02 04:58:36;;;;;;;3.45;1.55;;;;;;;12.72;78.83;101922.59;5040334;28;20044;-72
2022/09/02 05:01:12;;;;;;;4.30;2.03;;;;;;;12.64;80.30;101919.72;5040898;28;20025;-73
2022/09/02 05:03:38;;;;;;;4.07;1.70;;;;;;;12.68;79.60;101921.16;5043900;28;20024;-73
2022/09/02 05:06:06;;;;;;;3.63;1.70;;;;;;;12.93;78.60;101924.25;5039108;28;20358;-72
2022/09/02 05:08:35;;;;;;;5.22;2.42;;;;;;;12.82;79.16;101932.59;5050861;28;20059;-72
2022/09/02 05:11:12;;;;;;;4.63;1.60;;;;;;;12.82;78.93;101930.72;5040686;28;20028;-73
2022/09/02 05:13:39;;;;;;;4.05;1.90;;;;;;;12.93;78.54;101940.56;5038525;28;20039;-71
2022/09/02 05:16:05;;;;;;;4.82;1.88;;;;;;;13.01;78.68;101932.53;5064170;28;20075;-73
2022/09/02 05:18:30;;;;;;;3.72;1.55;;;;;;;12.84;79.71;101930.56;5041626;28;20016;-73
2022/09/02 05:20:56;;;;;;;6.20;1.98;;;;;;;12.78;79.64;101926.59;5059537;28;20024;-72
2022/09/02 05:23:21;;;;;;;5.05;1.75;;;;;;;12.98;79.17;101938.28;5040661;28;20548;-72
2022/09/02 05:25:47;;;;;;;4.85;1.83;;;;;;;12.90;79.36;101924.53;5064253;28;20012;-72
2022/09/02 05:28:12;;;;;;;7.35;4.03;;;;;;;13.07;78.69;101926.50;5058091;28;20208;-73
2022/09/02 05:30:40;;;;;;;6.72;1.73;;;;;;;13.14;78.22;101943.94;5051267;28;20020;-73
2022/09/02 05:33:07;;;;;;;4.70;1.35;;;;;;;13.16;78.11;101939.19;5040708;28;20029;-72
2022/09/02 05:35:33;;;;;;;3.40;1.60;;;;;;;13.16;78.06;101941.06;5050622;28;20078;-73
2022/09/02 05:37:58;;;;;;;6.15;1.80;;;;;;;13.34;77.85;101939.28;5067647;28;20020;-73
2022/09/02 05:40:25;;;;;;;3.83;1.52;;;;;;;13.32;77.78;101930.44;5054060;28;20025;-72
2022/09/02 05:42:51;;;;;;;2.17;1.30;;;;;;;13.39;77.38;101925.25;5057531;28;20052;-72
2022/09/02 05:45:17;;;;;;;2.15;1.42;;;;;;;13.46;76.84;101942.69;5057862;28;20073;-73
2022/09/02 05:47:42;;;;;;;5.10;1.77;;;;;;;13.53;76.93;101938.34;5069437;28;20022;-73
2022/09/02 05:50:08;;;;;;;8.80;1.80;;;;;;;13.38;77.53;101934.44;5051118;28;20093;-73
2022/09/02 05:52:36;;;;;;;2.95;1.88;;;;;;;13.63;76.82;101933.72;5051704;28;20020;-73
2022/09/02 05:55:02;;;;;;;5.85;2.17;;;;;;;13.47;77.32;101933.50;5051462;28;20024;-73
2022/09/02 05:57:28;;;;;;;7.22;1.95;;;;;;;13.59;76.85;101932.28;5046837;28;20039;-72
2022/09/02 05:59:56;;;;;;;9.13;1.73;;;;;;;13.63;76.93;101938.28;5048705;28;20035;-73
2022/09/02 06:02:23;;;;;;;2.78;1.48;;;;;;;13.71;76.32;101933.81;5067993;28;20062;-71
2022/09/02 06:04:52;;;;;;;5.07;1.45;;;;;;;13.80;76.11;101935.59;5040348;28;20473;-72
2022/09/02 06:07:21;;;;;;;4.63;1.50;;;;;;;13.97;75.62;101930.34;5037226;28;20020;-73
2022/09/02 06:09:47;;;;;;;14.90;1.65;;;;;;;13.92;75.46;101928.06;5041654;28;20016;-72
2022/09/02 06:12:15;;;;;;;3.00;1.65;;;;;;;13.95;75.83;101937.78;5041350;28;20057;-73
2022/09/02 06:14:41;;;;;;;3.95;1.75;;;;;;;14.03;75.12;101929.72;5043991;28;20043;-72
2022/09/02 06:17:07;;;;;;;4.10;1.40;;;;;;;14.18;74.74;101928.16;5035982;28;20033;-72
2022/09/02 06:19:34;;;;;;;2.40;1.35;;;;;;;14.33;74.29;101923.00;5050605;28;20108;-72
2022/09/02 06:22:00;;;;;;;6.38;1.55;;;;;;;14.42;73.90;101924.81;5050788;28;20107;-72
2022/09/02 06:24:27;;;;;;;3.35;1.30;;;;;;;14.40;73.67;101921.34;5051013;28;20038;-72
2022/09/02 06:26:53;;;;;;;2.53;1.58;;;;;;;14.32;73.97;101930.31;5050607;28;20078;-72
2022/09/02 06:29:21;;;;;;;3.42;1.83;;;;;;;14.28;74.09;101923.50;5050969;28;20021;-73
2022/09/02 06:31:48;;;;;;;2.78;1.42;;;;;;;14.38;73.67;101918.78;5037098;28;20021;-72
2022/09/02 06:34:16;;;;;;;3.72;1.35;;;;;;;14.71;72.78;101924.53;5037693;28;20091;-73
2022/09/02 06:36:45;;;;;;;3.90;1.30;;;;;;;14.62;72.51;101920.91;5045344;28;20024;-73
2022/09/02 06:39:13;;;;;;;3.30;1.58;;;;;;;14.77;72.61;101929.34;5037081;28;20017;-72
2022/09/02 06:41:40;;;;;;;6.20;1.13;;;;;;;14.80;72.23;101928.16;5041407;28;20024;-72
2022/09/02 06:44:08;;;;;;;4.60;1.35;;;;;;;14.90;71.22;101928.91;5038058;28;20017;-74
2022/09/02 06:46:39;;;;;;;9.20;3.67;;;;;;;15.15;71.01;101932.66;5037572;28;20104;-72
2022/09/02 06:49:06;;;;;;;4.53;2.25;;;;;;;15.14;70.73;101925.50;5048301;28;20029;-72
2022/09/02 06:51:41;;;;;;;5.50;1.80;;;;;;;14.95;71.17;101925.72;5033437;28;20039;-73
2022/09/02 06:54:09;;;;;;;1.83;1.48;;;;;;;15.02;70.69;101921.34;5052450;28;20039;-73
2022/09/02 06:56:36;;;;;;;6.88;1.40;;;;;;;15.18;70.03;101921.41;5052353;28;20051;-73
2022/09/02 06:59:02;;;;;;;6.32;1.35;;;;;;;15.30;69.58;101920.09;5052118;28;20028;-73
2022/09/02 07:01:30;;;;;;;3.40;1.30;;;;;;;15.20;70.14;101919.38;5044814;28;20047;-73
2022/09/02 07:06:43;;;;;;;4.88;1.40;;;;;;;15.55;69.10;101917.47;5049795;28;20020;-73
2022/09/02 07:09:15;;;;;;;7.18;1.40;;;;;;;15.75;68.40;101918.94;5032341;28;20021;-72
2022/09/02 07:11:40;;;;;;;5.85;1.17;;;;;;;15.85;68.39;101908.72;5031413;28;20089;-72
2022/09/02 07:14:06;;;;;;;12.60;1.60;;;;;;;15.80;68.12;101916.56;5031130;28;20089;-72
2022/09/02 07:16:41;;;;;;;8.07;1.20;;;;;;;15.94;67.71;101912.31;5031097;28;20122;-72
2022/09/02 07:19:07;;;;;;;2.03;0.90;;;;;;;16.73;65.73;101919.03;5044779;28;20028;-74
2022/09/02 07:21:33;;;;;;;2.38;1.00;;;;;;;16.99;65.65;101914.19;5048224;28;20131;-74
2022/09/02 07:24:00;;;;;;;3.42;1.10;;;;;;;16.83;64.98;101918.84;5030830;28;20044;-73
2022/09/02 07:26:27;;;;;;;14.60;1.67;;;;;;;16.85;64.93;101912.19;5030161;28;20043;-73
2022/09/02 07:28:52;;;;;;;3.35;0.98;;;;;;;17.38;64.02;101918.84;5032751;28;20045;-73
2022/09/02 07:31:18;;;;;;;2.42;1.20;;;;;;;17.27;64.10;101916.50;5057872;28;20063;-74
2022/09/02 07:33:44;;;;;;;3.67;1.08;;;;;;;17.70;63.67;101917.00;5055695;28;20052;-74
2022/09/02 07:36:12;;;;;;;7.85;0.95;;;;;;;17.80;61.62;101917.63;5035690;28;20021;-74
2022/09/02 07:38:39;;;;;;;7.55;0.95;;;;;;;17.98;61.47;101907.25;5045182;28;20070;-75
2022/09/02 07:41:05;;;;;;;4.05;1.08;;;;;;;18.01;60.28;101912.38;5048448;28;20107;-73
2022/09/02 07:43:31;;;;;;;8.57;1.23;;;;;;;18.32;59.85;101911.44;5052397;28;20040;-75
2022/09/02 07:45:56;;;;;;;6.97;1.10;;;;;;;18.34;59.74;101903.91;5050578;28;20035;-73
2022/09/02 07:48:23;;;;;;;2.78;1.48;;;;;;;18.62;58.68;101902.28;5037768;28;20041;-73
2022/09/02 07:50:49;;;;;;;8.65;1.30;;;;;;;18.64;57.86;101894.69;5030907;28;20020;-73
2022/09/02 07:53:15;;;;;;;8.77;0.93;;;;;;;18.52;59.09;101901.69;5063617;28;20054;-73
2022/09/02 07:55:42;;;;;;;6.50;1.05;;;;;;;18.74;57.52;101904.59;5073082;28;20039;-74
2022/09/02 07:58:09;;;;;;;1.63;1.00;;;;;;;18.95;57.24;101901.97;5057429;28;20028;-74
2022/09/02 08:00:36;;;;;;;1.85;0.85;;;;;;;19.04;56.54;101895.38;5040278;28;20031;-74
2022/09/02 08:03:02;;;;;;;2.92;0.80;;;;;;;19.38;55.70;101896.66;5052819;28;20021;-73
2022/09/02 08:05:29;;;;;;;4.18;0.90;;;;;;;19.44;55.06;101896.75;5041846;28;20025;-73
2022/09/02 08:07:55;;;;;;;5.38;1.25;;;;;;;19.50;55.48;101889.66;5040124;28;20497;-72
2022/09/02 08:10:22;;;;;;;1.58;0.80;;;;;;;19.55;54.75;101898.13;5047572;28;20032;-74
2022/09/02 08:12:47;;;;;;;1.77;0.77;;;;;;;19.77;54.21;101891.69;5042757;28;20362;-74
2022/09/02 08:15:14;;;;;;;3.88;1.05;;;;;;;19.86;54.71;101899.81;5038416;28;20031;-74
2022/09/02 08:17:40;;;;;;;2.78;1.02;;;;;;;20.19;53.05;101894.66;5041070;28;20028;-73
2022/09/02 08:20:11;;;;;;;2.35;0.95;;;;;;;20.12;52.21;101883.59;5054689;28;20423;-74
2022/09/02 08:22:37;;;;;;;13.18;1.02;;;;;;;20.35;51.99;101899.03;5036400;28;20020;-74
2022/09/02 08:25:03;;;;;;;4.07;1.08;;;;;;;20.51;51.66;101899.63;5039026;28;20031;-74
2022/09/02 08:27:29;;;;;;;0.80;0.77;;;;;;;20.37;51.03;101891.44;5044640;28;20111;-73
2022/09/02 08:29:54;;;;;;;2.53;0.98;;;;;;;20.43;50.78;101893.41;5050286;28;20028;-72
2022/09/02 08:32:20;;;;;;;3.00;0.90;;;;;;;20.31;51.73;101888.41;5039356;28;20295;-73
2022/09/02 08:34:45;;;;;;;2.83;1.05;;;;;;;20.58;50.82;101883.16;5040306;28;20032;-75
2022/09/02 08:37:10;;;;;;;1.23;0.80;;;;;;;20.98;50.09;101883.44;5046756;28;20539;-73
2022/09/02 08:39:37;;;;;;;3.13;0.73;;;;;;;20.86;49.78;101886.78;5033703;28;20021;-74
2022/09/02 08:42:14;;;;;;;11.38;1.23;;;;;;;20.79;49.87;101890.53;5040203;28;20020;-73
2022/09/02 08:44:40;;;;;;;1.65;0.80;;;;;;;20.80;49.77;101887.59;5038442;28;20031;-73
2022/09/02 08:47:11;;;;;;;2.78;0.95;;;;;;;20.70;50.27;101887.06;5041631;28;20032;-73
2022/09/02 08:49:50;;;;;;;1.17;0.77;;;;;;;20.61;50.57;101888.28;5036086;28;20107;-74
2022/09/02 08:52:44;;;;;;;1.75;0.68;;;;;;;20.68;50.81;101891.94;5031121;28;20748;-74
2022/09/02 08:55:19;;;;;;;5.50;0.88;;;;;;;20.91;49.93;101883.41;5042815;28;20475;-73
2022/09/02 08:57:45;;;;;;;1.77;0.77;;;;;;;21.31;49.26;101879.00;5038508;28;20120;-74
2022/09/02 09:00:12;;;;;;;3.55;1.20;;;;;;;21.49;48.84;101885.88;5035549;28;20119;-74
2022/09/02 09:03:02;;;;;;;2.22;0.98;;;;;;;21.27;48.82;101894.22;5041791;28;20036;-74
2022/09/02 09:05:45;;;;;;;1.88;1.30;;;;;;;21.50;48.59;101898.59;5036324;28;20025;-74
2022/09/02 09:08:25;;;;;;;2.47;0.95;;;;;;;21.57;48.16;101882.91;5045048;28;20113;-75
2022/09/02 09:11:00;;;;;;;2.03;0.80;;;;;;;21.67;47.58;101878.72;5034784;28;20042;-74
2022/09/02 09:13:51;;;;;;;6.40;1.02;;;;;;;21.83;47.90;101883.00;5038530;28;20017;-74
2022/09/02 09:16:25;;;;;;;2.22;1.17;;;;;;;22.16;46.34;101873.97;5041049;28;20029;-75
2022/09/02 09:18:57;;;;;;;2.58;1.25;;;;;;;22.04;47.01;101872.84;5043054;28;20036;-75
2022/09/02 09:21:23;;;;;;;;;;;;;;;22.10;46.84;101856.34;5040145;28;20028;-75
2022/09/02 09:23:52;;;;;;;2.08;0.93;;;;;;;22.21;46.58;101864.00;5046611;28;20047;-74
2022/09/02 09:26:26;;;;;;;7.32;1.38;;;;;;;22.23;46.73;101858.28;5043997;28;20040;-74
2022/09/02 09:28:54;;;;;;;1.85;0.80;;;;;;;22.44;46.10;101858.09;5042555;28;20032;-74
2022/09/02 09:31:23;;;;;;;2.42;1.02;;;;;;;22.21;46.53;101863.16;5042950;28;20025;-74
2022/09/02 09:34:05;;;;;;;7.22;1.05;;;;;;;22.05;46.08;101852.53;5041125;28;20024;-74
2022/09/02 09:36:39;;;;;;;2.28;0.70;;;;;;;22.22;46.13;101853.81;5036183;28;20047;-74
2022/09/02 09:39:23;;;;;;;3.03;1.10;;;;;;;22.12;46.11;101858.94;5039200;28;20029;-74
2022/09/02 09:41:50;;;;;;;1.40;1.00;;;;;;;22.21;46.42;101857.66;5035769;28;20035;-75
2022/09/02 09:44:37;;;;;;;3.30;1.30;;;;;;;22.48;45.31;101848.28;5041112;28;20029;-74
2022/09/02 09:47:09;;;;;;;6.78;1.17;;;;;;;22.37;45.42;101843.44;5043120;28;20060;-75
2022/09/02 09:49:36;;;;;;;7.00;1.30;;;;;;;22.61;45.20;101852.13;5033020;28;20033;-74
2022/09/02 09:52:02;;;;;;;5.82;0.90;;;;;;;22.46;45.21;101850.44;5038619;28;20020;-74
2022/09/02 09:54:28;;;;;;;11.23;0.85;;;;;;;22.67;45.43;101840.22;5041559;28;20028;-75
2022/09/02 09:56:55;;;;;;;7.25;1.30;;;;;;;22.63;44.35;101845.34;5037853;28;20071;-74
2022/09/02 09:59:46;;;;;;;5.55;1.02;;;;;;;22.36;45.33;101838.97;5035720;28;20017;-75
2022/09/02 10:02:20;;;;;;;7.45;0.90;;;;;;;22.75;44.58;101835.31;5042820;28;20051;-74
2022/09/02 10:04:46;;;;;;;7.07;0.80;;;;;;;23.09;43.75;101843.56;5042479;28;20468;-74
2022/09/02 10:07:12;;;;;;;7.22;1.15;;;;;;;22.59;44.78;101829.41;5042864;28;20032;-74
2022/09/02 10:09:38;;;;;;;7.35;1.10;;;;;;;22.48;44.29;101831.75;5033805;28;20055;-74
2022/09/02 10:12:05;;;;;;;6.82;0.82;;;;;;;22.82;43.87;101827.03;5041949;28;20025;-74
2022/09/02 10:14:35;;;;;;;3.55;1.55;;;;;;;22.88;44.21;101828.94;5039843;28;20017;-74
2022/09/02 10:17:06;;;;;;;7.55;1.63;;;;;;;23.22;43.16;101816.72;5038871;28;20020;-74
2022/09/02 10:19:41;;;;;;;11.73;1.00;;;;;;;23.32;42.92;101816.25;5038701;28;20036;-74
2022/09/02 10:22:25;;;;;;;3.33;0.90;;;;;;;23.37;42.60;101797.09;5041939;28;20040;-73
2022/09/02 10:24:57;;;;;;;9.57;1.05;;;;;;;23.28;43.01;101803.94;5041133;28;20111;-76
2022/09/02 10:27:49;;;;;;;1.27;1.05;;;;;;;23.49;42.45;101800.84;5036344;28;20020;-75
2022/09/02 10:30:20;;;;;;;8.50;1.20;;;;;;;23.74;42.33;101798.19;5014710;28;20032;-75
2022/09/02 10:33:17;;;;;;;3.33;1.30;;;;;;;23.85;42.08;101799.38;5038331;28;20281;-74
2022/09/02 10:36:13;;;;;;;9.85;1.25;;;;;;;23.67;42.16;101790.97;5036322;28;20098;-74
2022/09/02 10:38:42;;;;;;;7.50;1.13;;;;;;;24.00;41.41;101791.63;5012800;28;20386;-73
2022/09/02 10:41:13;;;;;;;7.70;1.20;;;;;;;24.38;40.91;101793.41;5057118;28;20048;-74
2022/09/02 10:44:01;;;;;;;6.95;0.90;;;;;;;24.20;40.15;101782.28;5037441;28;20024;-74
2022/09/02 10:46:46;;;;;;;3.08;1.00;;;;;;;24.01;40.39;101773.94;5038466;28;20035;-73
2022/09/02 10:49:33;;;;;;;6.22;1.15;;;;;;;23.74;41.36;101780.75;5054724;28;20366;-74
2022/09/02 10:52:31;;;;;;;3.67;0.95;;;;;;;23.47;41.03;101769.84;5040311;28;20043;-73
2022/09/02 10:55:15;;;;;;;4.53;1.00;;;;;;;24.17;40.47;101780.81;5037916;28;20190;-74
2022/09/02 10:58:02;;;;;;;8.77;1.10;;;;;;;23.64;41.11;101774.84;5048378;28;20020;-73
2022/09/02 11:00:30;;;;;;;4.85;1.13;;;;;;;23.59;40.93;101767.19;5068947;28;20032;-73
2022/09/02 11:03:04;;;;;;;8.13;1.40;;;;;;;24.05;40.26;101766.84;5070934;28;20016;-73
2022/09/02 11:05:42;;;;;;;1.95;1.10;;;;;;;24.12;39.57;101771.50;5070158;28;20075;-74
2022/09/02 11:08:42;;;;;;;2.22;0.90;;;;;;;23.86;40.00;101767.03;5047961;28;20036;-74
2022/09/02 11:11:20;;;;;;;4.57;1.10;;;;;;;24.69;39.57;101766.69;5036420;28;20060;-74
2022/09/02 11:13:53;;;;;;;3.58;1.23;;;;;;;24.32;39.49;101766.63;5045503;28;20069;-74
2022/09/02 11:16:29;;;;;;;9.70;1.38;;;;;;;23.59;41.19;101755.28;5040179;28;20093;-73
2022/09/02 11:18:57;;;;;;;10.43;1.30;;;;;;;24.34;40.16;101754.28;5057473;28;20020;-75
2022/09/02 11:21:47;;;;;;;4.18;1.20;;;;;;;24.54;39.31;101748.53;5069680;28;20035;-74
2022/09/02 11:24:25;;;;;;;1.98;1.20;;;;;;;24.98;38.00;101743.78;5069366;28;20473;-74
2022/09/02 11:27:10;;;;;;;7.15;1.10;;;;;;;24.92;38.17;101750.25;5058967;28;20093;-74
2022/09/02 11:30:00;;;;;;;6.57;1.00;;;;;;;25.02;38.20;101744.97;5050739;28;20024;-74
2022/09/02 11:32:50;;;;;;;5.13;1.30;;;;;;;24.50;39.18;101749.22;5050743;28;20024;-75
2022/09/02 11:35:22;;;;;;;15.20;1.10;;;;;;;25.11;38.50;101749.16;5050847;28;20279;-75
2022/09/02 11:37:57;;;;;;;12.75;1.50;;;;;;;25.46;37.71;101745.69;5050818;28;20016;-75